sensor_id;sensor_type;location;lat;lon;timestamp;pressure;altitude;pressure_sealevel;temperature;humidity
5872;BME280;2962;51.312;7.378;2023-02-19T00:01:14;97573.59;;;7.73;100.00
5872;BME280;2962;51.312;7.378;2023-02-19T00:03:41;97574.28;;;7.70;100.00
5872;BME280;2962;51.312;7.378;2023-02-19T00:06:09;97575.88;;;7.71;100.00
5872;BME280;2962;51.312;7.378;2023-02-19T00:08:36;97590.56;;;7.70;100.00
5872;BME280;2962;51.312;7.378;2023-02-19T00:11:05;97586.28;;;7.69;100.00
5872;BME280;2962;51.312;7.378;2023-02-19T00:13:35;97573.16;;;7.71;100.00
5872;BME280;2962;51.312;7.378;2023-02-19T00:16:05;97570.44;;;7.71;100.00
5872;BME280;2962;51.312;7.378;2023-02-19T00:18:31;97574.81;;;7.75;100.00
5872;BME280;2962;51.312;7.378;2023-02-19T00:20:56;97572.09;;;7.75;100.00
5872;BME280;2962;51.312;7.378;2023-02-19T00:23:22;97571.75;;;7.61;100.00
5872;BME280;2962;51.312;7.378;2023-02-19T00:25:47;97583.66;;;7.72;100.00
5872;BME280;2962;51.312;7.378;2023-02-19T00:28:12;97568.97;;;7.73;100.00
5872;BME280;2962;51.312;7.378;2023-02-19T00:30:37;97569.66;;;7.70;100.00
5872;BME280;2962;51.312;7.378;2023-02-19T00:33:03;97574.63;;;7.68;100.00
5872;BME280;2962;51.312;7.378;2023-02-19T00:35:28;97581.28;;;7.71;100.00
5872;BME280;2962;51.312;7.378;2023-02-19T00:37:53;97557.72;;;7.59;100.00
5872;BME280;2962;51.312;7.378;2023-02-19T00:40:18;97539.44;;;7.56;100.00
5872;BME280;2962;51.312;7.378;2023-02-19T00:42:44;97566.50;;;7.68;100.00
5872;BME280;2962;51.312;7.378;2023-02-19T00:45:09;97565.81;;;7.71;100.00
5872;BME280;2962;51.312;7.378;2023-02-19T00:47:34;97558.81;;;7.70;100.00
5872;BME280;2962;51.312;7.378;2023-02-19T00:49:59;97530.34;;;7.64;100.00
5872;BME280;2962;51.312;7.378;2023-02-19T00:52:25;97547.69;;;7.75;100.00
5872;BME280;2962;51.312;7.378;2023-02-19T00:54:50;97546.41;;;7.69;100.00
5872;BME280;2962;51.312;7.378;2023-02-19T00:57:15;97554.16;;;7.71;100.00
5872;BME280;2962;51.312;7.378;2023-02-19T00:59:41;97546.19;;;7.62;100.00
5872;BME280;2962;51.312;7.378;2023-02-19T01:02:06;97539.72;;;7.67;100.00
5872;BME280;2962;51.312;7.378;2023-02-19T01:04:31;97555.84;;;7.75;100.00
5872;BME280;2962;51.312;7.378;2023-02-19T01:06:56;97534.31;;;7.67;100.00
5872;BME280;2962;51.312;7.378;2023-02-19T01:09:22;97550.00;;;7.73;100.00
5872;BME280;2962;51.312;7.378;2023-02-19T01:11:47;97539.47;;;7.72;100.00
5872;BME280;2962;51.312;7.378;2023-02-19T01:14:12;97538.00;;;7.74;100.00
5872;BME280;2962;51.312;7.378;2023-02-19T01:16:37;97530.44;;;7.68;100.00
5872;BME280;2962;51.312;7.378;2023-02-19T01:19:03;97539.19;;;7.61;100.00
5872;BME280;2962;51.312;7.378;2023-02-19T01:21:29;97559.25;;;7.72;100.00
5872;BME280;2962;51.312;7.378;2023-02-19T01:23:55;97540.56;;;7.55;100.00
5872;BME280;2962;51.312;7.378;2023-02-19T01:26:24;97552.50;;;7.66;100.00
5872;BME280;2962;51.312;7.378;2023-02-19T01:28:50;97544.78;;;7.68;100.00
5872;BME280;2962;51.312;7.378;2023-02-19T01:31:18;97538.38;;;7.61;100.00
5872;BME280;2962;51.312;7.378;2023-02-19T01:33:52;97545.69;;;7.72;100.00
5872;BME280;2962;51.312;7.378;2023-02-19T01:36:17;97531.69;;;7.70;100.00
5872;BME280;2962;51.312;7.378;2023-02-19T01:38:43;97528.88;;;7.67;100.00
5872;BME280;2962;51.312;7.378;2023-02-19T01:41:11;97514.81;;;7.61;100.00
5872;BME280;2962;51.312;7.378;2023-02-19T01:46:36;97517.69;;;7.68;100.00
5872;BME280;2962;51.312;7.378;2023-02-19T01:49:06;97530.91;;;7.70;100.00
5872;BME280;2962;51.312;7.378;2023-02-19T01:51:35;97532.06;;;7.69;100.00
5872;BME280;2962;51.312;7.378;2023-02-19T01:54:04;97535.66;;;7.73;100.00
5872;BME280;2962;51.312;7.378;2023-02-19T01:56:32;97502.16;;;7.53;100.00
5872;BME280;2962;51.312;7.378;2023-02-19T01:58:59;97520.66;;;7.63;100.00
5872;BME280;2962;51.312;7.378;2023-02-19T02:01:25;97532.06;;;7.69;100.00
5872;BME280;2962;51.312;7.378;2023-02-19T02:03:50;97540.00;;;7.62;100.00
5872;BME280;2962;51.312;7.378;2023-02-19T02:06:25;97537.13;;;7.70;100.00
5872;BME280;2962;51.312;7.378;2023-02-19T02:08:54;97525.03;;;7.68;100.00
5872;BME280;2962;51.312;7.378;2023-02-19T02:11:42;97526.75;;;7.60;100.00
5872;BME280;2962;51.312;7.378;2023-02-19T02:14:08;97503.25;;;7.64;100.00
5872;BME280;2962;51.312;7.378;2023-02-19T02:16:43;97503.00;;;7.69;100.00
5872;BME280;2962;51.312;7.378;2023-02-19T02:22:13;97499.84;;;7.67;100.00
5872;BME280;2962;51.312;7.378;2023-02-19T02:25:10;97507.34;;;7.58;100.00
5872;BME280;2962;51.312;7.378;2023-02-19T02:30:42;97512.22;;;7.52;100.00
5872;BME280;2962;51.312;7.378;2023-02-19T02:33:24;97514.00;;;7.61;100.00
5872;BME280;2962;51.312;7.378;2023-02-19T02:36:08;97529.28;;;7.53;100.00
5872;BME280;2962;51.312;7.378;2023-02-19T02:38:38;97520.34;;;7.52;100.00
5872;BME280;2962;51.312;7.378;2023-02-19T02:41:05;97517.13;;;7.47;100.00
5872;BME280;2962;51.312;7.378;2023-02-19T02:43:30;97527.72;;;7.52;100.00
5872;BME280;2962;51.312;7.378;2023-02-19T02:45:56;97503.09;;;7.45;100.00
5872;BME280;2962;51.312;7.378;2023-02-19T02:48:31;97516.44;;;7.50;100.00
5872;BME280;2962;51.312;7.378;2023-02-19T02:51:02;97524.22;;;7.51;100.00
5872;BME280;2962;51.312;7.378;2023-02-19T02:53:34;97517.41;;;7.57;100.00
5872;BME280;2962;51.312;7.378;2023-02-19T02:56:20;97513.00;;;7.53;100.00
5872;BME280;2962;51.312;7.378;2023-02-19T02:58:48;97536.63;;;7.52;100.00
5872;BME280;2962;51.312;7.378;2023-02-19T03:01:33;97507.41;;;7.46;100.00
5872;BME280;2962;51.312;7.378;2023-02-19T03:04:32;97509.41;;;7.49;100.00
5872;BME280;2962;51.312;7.378;2023-02-19T03:07:04;97540.03;;;7.49;100.00
5872;BME280;2962;51.312;7.378;2023-02-19T03:09:37;97515.34;;;7.39;100.00
5872;BME280;2962;51.312;7.378;2023-02-19T03:12:06;97543.88;;;7.48;100.00
5872;BME280;2962;51.312;7.378;2023-02-19T03:14:56;97538.81;;;7.47;100.00
5872;BME280;2962;51.312;7.378;2023-02-19T03:17:48;97530.22;;;7.45;100.00
5872;BME280;2962;51.312;7.378;2023-02-19T03:20:38;97543.44;;;7.46;100.00
5872;BME280;2962;51.312;7.378;2023-02-19T03:23:06;97545.81;;;7.48;100.00
5872;BME280;2962;51.312;7.378;2023-02-19T03:25:34;97544.91;;;7.44;100.00
5872;BME280;2962;51.312;7.378;2023-02-19T03:28:25;97538.97;;;7.38;100.00
5872;BME280;2962;51.312;7.378;2023-02-19T03:31:14;97561.97;;;7.44;100.00
5872;BME280;2962;51.312;7.378;2023-02-19T03:33:42;97555.66;;;7.40;100.00
5872;BME280;2962;51.312;7.378;2023-02-19T03:36:11;97556.22;;;7.33;100.00
5872;BME280;2962;51.312;7.378;2023-02-19T03:38:47;97568.22;;;7.32;100.00
5872;BME280;2962;51.312;7.378;2023-02-19T03:41:29;97551.84;;;7.29;100.00
5872;BME280;2962;51.312;7.378;2023-02-19T03:44:08;97563.56;;;7.33;100.00
5872;BME280;2962;51.312;7.378;2023-02-19T03:52:11;97571.81;;;7.37;100.00
5872;BME280;2962;51.312;7.378;2023-02-19T03:55:15;97564.81;;;7.36;100.00
5872;BME280;2962;51.312;7.378;2023-02-19T03:57:52;97576.19;;;7.41;100.00
5872;BME280;2962;51.312;7.378;2023-02-19T04:00:22;97588.19;;;7.40;100.00
5872;BME280;2962;51.312;7.378;2023-02-19T04:06:06;97567.47;;;7.20;100.00
5872;BME280;2962;51.312;7.378;2023-02-19T04:08:35;97576.91;;;7.26;100.00
5872;BME280;2962;51.312;7.378;2023-02-19T04:11:02;97590.94;;;7.28;100.00
5872;BME280;2962;51.312;7.378;2023-02-19T04:13:32;97588.22;;;7.28;100.00
5872;BME280;2962;51.312;7.378;2023-02-19T04:16:02;97592.63;;;7.20;100.00
5872;BME280;2962;51.312;7.378;2023-02-19T04:18:34;97590.28;;;7.19;100.00
5872;BME280;2962;51.312;7.378;2023-02-19T04:21:03;97606.88;;;7.17;100.00
5872;BME280;2962;51.312;7.378;2023-02-19T04:23:34;97606.88;;;7.17;100.00
5872;BME280;2962;51.312;7.378;2023-02-19T04:26:01;97606.53;;;7.19;100.00
5872;BME280;2962;51.312;7.378;2023-02-19T04:28:28;97585.56;;;7.03;100.00
5872;BME280;2962;51.312;7.378;2023-02-19T04:30:53;97619.16;;;7.15;100.00
5872;BME280;2962;51.312;7.378;2023-02-19T04:33:19;97610.97;;;7.11;100.00
5872;BME280;2962;51.312;7.378;2023-02-19T04:35:44;97619.41;;;7.09;100.00
5872;BME280;2962;51.312;7.378;2023-02-19T04:38:09;97633.75;;;7.10;100.00
5872;BME280;2962;51.312;7.378;2023-02-19T04:40:36;97623.16;;;7.05;100.00
5872;BME280;2962;51.312;7.378;2023-02-19T04:43:01;97630.38;;;7.01;100.00
5872;BME280;2962;51.312;7.378;2023-02-19T04:45:26;97614.56;;;6.91;100.00
5872;BME280;2962;51.312;7.378;2023-02-19T04:47:52;97629.13;;;6.98;100.00
5872;BME280;2962;51.312;7.378;2023-02-19T04:50:17;97639.63;;;7.00;100.00
5872;BME280;2962;51.312;7.378;2023-02-19T04:52:42;97630.94;;;6.94;100.00
5872;BME280;2962;51.312;7.378;2023-02-19T04:55:08;97634.91;;;6.97;100.00
5872;BME280;2962;51.312;7.378;2023-02-19T04:57:34;97646.16;;;6.99;100.00
5872;BME280;2962;51.312;7.378;2023-02-19T04:59:59;97648.44;;;7.09;100.00
5872;BME280;2962;51.312;7.378;2023-02-19T05:02:24;97653.31;;;7.03;100.00
5872;BME280;2962;51.312;7.378;2023-02-19T05:04:50;97630.94;;;6.94;100.00
5872;BME280;2962;51.312;7.378;2023-02-19T05:07:15;97648.44;;;6.97;100.00
5872;BME280;2962;51.312;7.378;2023-02-19T05:09:40;97664.91;;;6.92;100.00
5872;BME280;2962;51.312;7.378;2023-02-19T05:12:06;97649.09;;;6.94;100.00
5872;BME280;2962;51.312;7.378;2023-02-19T05:14:31;97663.56;;;6.98;100.00
5872;BME280;2962;51.312;7.378;2023-02-19T05:16:56;97665.91;;;6.99;100.00
5872;BME280;2962;51.312;7.378;2023-02-19T05:19:22;97666.63;;;6.96;100.00
5872;BME280;2962;51.312;7.378;2023-02-19T05:21:47;97622.59;;;6.75;100.00
5872;BME280;2962;51.312;7.378;2023-02-19T05:24:12;97668.31;;;6.89;100.00
5872;BME280;2962;51.312;7.378;2023-02-19T05:26:37;97680.03;;;6.93;100.00
5872;BME280;2962;51.312;7.378;2023-02-19T05:29:03;97677.44;;;6.96;100.00
5872;BME280;2962;51.312;7.378;2023-02-19T05:31:28;97678.91;;;6.94;100.00
5872;BME280;2962;51.312;7.378;2023-02-19T05:33:55;97680.16;;;6.96;100.00
5872;BME280;2962;51.312;7.378;2023-02-19T05:36:21;97679.81;;;6.85;100.00
5872;BME280;2962;51.312;7.378;2023-02-19T05:38:48;97700.47;;;6.90;100.00
5872;BME280;2962;51.312;7.378;2023-02-19T05:41:21;97692.22;;;6.87;100.00
5872;BME280;2962;51.312;7.378;2023-02-19T05:43:47;97698.66;;;6.82;100.00
5872;BME280;2962;51.312;7.378;2023-02-19T05:46:16;97702.72;;;6.88;100.00
5872;BME280;2962;51.312;7.378;2023-02-19T05:48:42;97705.31;;;6.84;100.00
5872;BME280;2962;51.312;7.378;2023-02-19T05:51:10;97700.81;;;6.89;100.00
5872;BME280;2962;51.312;7.378;2023-02-19T05:53:36;97699.19;;;6.75;100.00
5872;BME280;2962;51.312;7.378;2023-02-19T05:56:02;97711.84;;;6.83;100.00
5872;BME280;2962;51.312;7.378;2023-02-19T05:58:28;97720.66;;;6.80;100.00
5872;BME280;2962;51.312;7.378;2023-02-19T06:00:53;97721.69;;;6.88;100.00
5872;BME280;2962;51.312;7.378;2023-02-19T06:03:20;97716.59;;;6.87;100.00
5872;BME280;2962;51.312;7.378;2023-02-19T06:05:45;97704.97;;;6.86;100.00
5872;BME280;2962;51.312;7.378;2023-02-19T06:08:12;97703.28;;;6.81;100.00
5872;BME280;2962;51.312;7.378;2023-02-19T06:10:38;97724.41;;;6.88;100.00
5872;BME280;2962;51.312;7.378;2023-02-19T06:13:08;97726.75;;;6.77;100.00
5872;BME280;2962;51.312;7.378;2023-02-19T06:15:35;97730.81;;;6.83;100.00
5872;BME280;2962;51.312;7.378;2023-02-19T06:18:00;97730.13;;;6.87;100.00
5872;BME280;2962;51.312;7.378;2023-02-19T06:20:27;97720.66;;;6.80;100.00
5872;BME280;2962;51.312;7.378;2023-02-19T06:22:52;97729.69;;;6.84;100.00
5872;BME280;2962;51.312;7.378;2023-02-19T06:25:18;97723.00;;;6.70;100.00
5872;BME280;2962;51.312;7.378;2023-02-19T06:27:43;97730.22;;;6.66;100.00
5872;BME280;2962;51.312;7.378;2023-02-19T06:30:09;97737.78;;;6.72;100.00
5872;BME280;2962;51.312;7.378;2023-02-19T06:32:35;97746.78;;;6.64;100.00
5872;BME280;2962;51.312;7.378;2023-02-19T06:35:00;97744.28;;;6.59;100.00
5872;BME280;2962;51.312;7.378;2023-02-19T06:37:26;97758.06;;;6.54;100.00
5872;BME280;2962;51.312;7.378;2023-02-19T06:39:51;97751.75;;;6.62;100.00
5872;BME280;2962;51.312;7.378;2023-02-19T06:42:16;97752.41;;;6.59;100.00
5872;BME280;2962;51.312;7.378;2023-02-19T06:44:42;97748.13;;;6.58;100.00
5872;BME280;2962;51.312;7.378;2023-02-19T06:47:07;97753.19;;;6.47;100.00
5872;BME280;2962;51.312;7.378;2023-02-19T06:49:32;97757.97;;;6.63;100.00
5872;BME280;2962;51.312;7.378;2023-02-19T06:51:57;97756.69;;;6.60;100.00
5872;BME280;2962;51.312;7.378;2023-02-19T06:54:24;97756.78;;;6.51;100.00
5872;BME280;2962;51.312;7.378;2023-02-19T06:56:50;97765.47;;;6.57;100.00
5872;BME280;2962;51.312;7.378;2023-02-19T06:59:15;97772.38;;;6.54;100.00
5872;BME280;2962;51.312;7.378;2023-02-19T07:01:42;97762.69;;;6.53;100.00
5872;BME280;2962;51.312;7.378;2023-02-19T07:04:07;97777.22;;;6.61;100.00
5872;BME280;2962;51.312;7.378;2023-02-19T07:06:33;97775.47;;;6.65;100.00
5872;BME280;2962;51.312;7.378;2023-02-19T07:09:02;97780.41;;;6.63;100.00
5872;BME280;2962;51.312;7.378;2023-02-19T07:11:30;97782.88;;;6.68;100.00
5872;BME280;2962;51.312;7.378;2023-02-19T07:13:57;97792.50;;;6.66;100.00
5872;BME280;2962;51.312;7.378;2023-02-19T07:16:23;97773.03;;;6.51;100.00
5872;BME280;2962;51.312;7.378;2023-02-19T07:18:49;97809.53;;;6.66;100.00
5872;BME280;2962;51.312;7.378;2023-02-19T07:21:15;97804.28;;;6.61;100.00
5872;BME280;2962;51.312;7.378;2023-02-19T07:23:41;97808.94;;;6.60;100.00
5872;BME280;2962;51.312;7.378;2023-02-19T07:26:12;97818.06;;;6.56;100.00
5872;BME280;2962;51.312;7.378;2023-02-19T07:28:45;97822.03;;;6.58;100.00
5872;BME280;2962;51.312;7.378;2023-02-19T07:31:11;97831.47;;;6.52;100.00
5872;BME280;2962;51.312;7.378;2023-02-19T07:33:37;97836.28;;;6.47;100.00
5872;BME280;2962;51.312;7.378;2023-02-19T07:36:05;97854.44;;;6.46;100.00
5872;BME280;2962;51.312;7.378;2023-02-19T07:38:31;97833.75;;;6.42;100.00
5872;BME280;2962;51.312;7.378;2023-02-19T07:41:01;97846.84;;;6.40;100.00
5872;BME280;2962;51.312;7.378;2023-02-19T07:43:29;97854.31;;;6.43;100.00
5872;BME280;2962;51.312;7.378;2023-02-19T07:45:55;97856.41;;;6.37;100.00
5872;BME280;2962;51.312;7.378;2023-02-19T07:48:21;97858.13;;;6.42;100.00
5872;BME280;2962;51.312;7.378;2023-02-19T07:50:54;97821.97;;;6.25;100.00
5872;BME280;2962;51.312;7.378;2023-02-19T07:53:20;97861.31;;;6.44;100.00
5872;BME280;2962;51.312;7.378;2023-02-19T07:55:45;97862.44;;;6.43;100.00
5872;BME280;2962;51.312;7.378;2023-02-19T07:58:11;97870.56;;;6.43;100.00
5872;BME280;2962;51.312;7.378;2023-02-19T08:00:36;97868.78;;;6.47;100.00
5872;BME280;2962;51.312;7.378;2023-02-19T08:03:01;97872.91;;;6.44;100.00
5872;BME280;2962;51.312;7.378;2023-02-19T08:05:29;97877.47;;;6.52;100.00
5872;BME280;2962;51.312;7.378;2023-02-19T08:07:56;97884.81;;;6.52;100.00
5872;BME280;2962;51.312;7.378;2023-02-19T08:10:21;97880.03;;;6.49;100.00
5872;BME280;2962;51.312;7.378;2023-02-19T08:13:27;97886.34;;;6.62;100.00
5872;BME280;2962;51.312;7.378;2023-02-19T08:16:07;97893.91;;;6.68;100.00
5872;BME280;2962;51.312;7.378;2023-02-19T08:18:33;97882.94;;;6.65;100.00
5872;BME280;2962;51.312;7.378;2023-02-19T08:20:58;97906.06;;;6.62;100.00
5872;BME280;2962;51.312;7.378;2023-02-19T08:23:25;97907.59;;;6.51;100.00
5872;BME280;2962;51.312;7.378;2023-02-19T08:25:52;97917.47;;;6.68;100.00
5872;BME280;2962;51.312;7.378;2023-02-19T08:28:18;97892.06;;;6.60;100.00
5872;BME280;2962;51.312;7.378;2023-02-19T08:30:45;97920.66;;;6.70;100.00
5872;BME280;2962;51.312;7.378;2023-02-19T08:33:13;97910.16;;;6.68;100.00
5872;BME280;2962;51.312;7.378;2023-02-19T08:35:39;97906.66;;;6.68;100.00
5872;BME280;2962;51.312;7.378;2023-02-19T08:38:05;97903.03;;;6.64;100.00
5872;BME280;2962;51.312;7.378;2023-02-19T08:40:31;97915.84;;;6.75;100.00
5872;BME280;2962;51.312;7.378;2023-02-19T08:43:08;97905.78;;;6.76;100.00
5872;BME280;2962;51.312;7.378;2023-02-19T08:45:36;97891.66;;;6.49;100.00
5872;BME280;2962;51.312;7.378;2023-02-19T08:48:01;97912.16;;;6.59;100.00
5872;BME280;2962;51.312;7.378;2023-02-19T08:50:28;97915.44;;;6.65;100.00
5872;BME280;2962;51.312;7.378;2023-02-19T08:52:53;97928.13;;;6.73;100.00
5872;BME280;2962;51.312;7.378;2023-02-19T08:55:18;97921.44;;;6.70;100.00
5872;BME280;2962;51.312;7.378;2023-02-19T08:57:44;97914.78;;;6.68;100.00
5872;BME280;2962;51.312;7.378;2023-02-19T09:00:10;97929.19;;;6.80;100.00
5872;BME280;2962;51.312;7.378;2023-02-19T09:02:36;97921.72;;;6.77;100.00
5872;BME280;2962;51.312;7.378;2023-02-19T09:05:02;97928.06;;;6.81;100.00
5872;BME280;2962;51.312;7.378;2023-02-19T09:07:29;97935.41;;;6.81;100.00
5872;BME280;2962;51.312;7.378;2023-02-19T09:09:54;97932.00;;;6.84;100.00
5872;BME280;2962;51.312;7.378;2023-02-19T09:12:19;97937.09;;;6.85;100.00
5872;BME280;2962;51.312;7.378;2023-02-19T09:14:45;97935.13;;;6.74;100.00
5872;BME280;2962;51.312;7.378;2023-02-19T09:17:11;97949.66;;;6.69;100.00
5872;BME280;2962;51.312;7.378;2023-02-19T09:19:36;97948.47;;;6.79;100.00
5872;BME280;2962;51.312;7.378;2023-02-19T09:22:03;97965.22;;;6.72;100.00
5872;BME280;2962;51.312;7.378;2023-02-19T09:24:28;97956.31;;;6.72;100.00
5872;BME280;2962;51.312;7.378;2023-02-19T09:26:54;97955.06;;;6.69;100.00
5872;BME280;2962;51.312;7.378;2023-02-19T09:29:23;97951.25;;;6.70;100.00
5872;BME280;2962;51.312;7.378;2023-02-19T09:31:48;97969.91;;;6.84;100.00
5872;BME280;2962;51.312;7.378;2023-02-19T09:34:14;97983.34;;;6.80;100.00
5872;BME280;2962;51.312;7.378;2023-02-19T09:36:39;97991.94;;;6.82;100.00
5872;BME280;2962;51.312;7.378;2023-02-19T09:39:06;97980.56;;;6.89;100.00
5872;BME280;2962;51.312;7.378;2023-02-19T09:41:38;97986.13;;;6.93;100.00
5872;BME280;2962;51.312;7.378;2023-02-19T09:44:12;97983.28;;;6.89;100.00
5872;BME280;2962;51.312;7.378;2023-02-19T09:46:48;97985.56;;;6.99;100.00
5872;BME280;2962;51.312;7.378;2023-02-19T09:49:35;97977.88;;;6.89;100.00
5872;BME280;2962;51.312;7.378;2023-02-19T09:52:02;97989.34;;;6.86;100.00
5872;BME280;2962;51.312;7.378;2023-02-19T09:54:30;98000.31;;;6.90;100.00
5872;BME280;2962;51.312;7.378;2023-02-19T09:56:59;97991.72;;;6.88;100.00
5872;BME280;2962;51.312;7.378;2023-02-19T09:59:29;98015.06;;;7.01;100.00
5872;BME280;2962;51.312;7.378;2023-02-19T10:02:03;97992.47;;;6.97;100.00
5872;BME280;2962;51.312;7.378;2023-02-19T10:04:29;98007.38;;;7.03;100.00
5872;BME280;2962;51.312;7.378;2023-02-19T10:06:56;97998.28;;;7.07;100.00
5872;BME280;2962;51.312;7.378;2023-02-19T10:09:28;98017.00;;;7.33;100.00
5872;BME280;2962;51.312;7.378;2023-02-19T10:11:54;98021.91;;;7.40;100.00
5872;BME280;2962;51.312;7.378;2023-02-19T10:14:33;98019.34;;;7.23;100.00
5872;BME280;2962;51.312;7.378;2023-02-19T10:17:03;98030.25;;;7.14;100.00
5872;BME280;2962;51.312;7.378;2023-02-19T10:19:29;98033.28;;;7.13;100.00
5872;BME280;2962;51.312;7.378;2023-02-19T10:21:55;98035.66;;;6.93;100.00
5872;BME280;2962;51.312;7.378;2023-02-19T10:24:24;98043.19;;;6.88;100.00
5872;BME280;2962;51.312;7.378;2023-02-19T10:26:51;98051.31;;;6.88;100.00
5872;BME280;2962;51.312;7.378;2023-02-19T10:29:16;98038.03;;;6.74;100.00
5872;BME280;2962;51.312;7.378;2023-02-19T10:31:41;98035.28;;;6.53;100.00
5872;BME280;2962;51.312;7.378;2023-02-19T10:34:20;98072.31;;;6.70;100.00
5872;BME280;2962;51.312;7.378;2023-02-19T10:36:47;98076.25;;;6.72;100.00
5872;BME280;2962;51.312;7.378;2023-02-19T10:41:47;98087.19;;;6.84;100.00
5872;BME280;2962;51.312;7.378;2023-02-19T10:44:16;98085.88;;;6.91;100.00
5872;BME280;2962;51.312;7.378;2023-02-19T10:46:47;98091.97;;;7.08;100.00
5872;BME280;2962;51.312;7.378;2023-02-19T10:49:23;98091.97;;;7.29;100.00
5872;BME280;2962;51.312;7.378;2023-02-19T10:51:51;98099.25;;;7.38;100.00
5872;BME280;2962;51.312;7.378;2023-02-19T10:54:19;98089.31;;;7.42;100.00
5872;BME280;2962;51.312;7.378;2023-02-19T10:56:48;98094.41;;;7.22;100.00
5872;BME280;2962;51.312;7.378;2023-02-19T10:59:18;98087.88;;;7.02;100.00
5872;BME280;2962;51.312;7.378;2023-02-19T11:02:15;98093.16;;;6.99;100.00
5872;BME280;2962;51.312;7.378;2023-02-19T11:04:41;98104.53;;;6.92;100.00
5872;BME280;2962;51.312;7.378;2023-02-19T11:07:25;98113.09;;;6.94;100.00
5872;BME280;2962;51.312;7.378;2023-02-19T11:09:51;98111.81;;;6.92;100.00
5872;BME280;2962;51.312;7.378;2023-02-19T11:12:37;98121.84;;;7.00;100.00
5872;BME280;2962;51.312;7.378;2023-02-19T11:15:22;98115.22;;;6.89;100.00
5872;BME280;2962;51.312;7.378;2023-02-19T11:17:54;98102.59;;;6.93;100.00
5872;BME280;2962;51.312;7.378;2023-02-19T11:20:20;98105.53;;;7.08;100.00
5872;BME280;2962;51.312;7.378;2023-02-19T11:22:46;98116.56;;;7.03;100.00
5872;BME280;2962;51.312;7.378;2023-02-19T11:28:15;98113.16;;;7.15;100.00
5872;BME280;2962;51.312;7.378;2023-02-19T11:30:45;98109.72;;;7.27;100.00
5872;BME280;2962;51.312;7.378;2023-02-19T11:35:47;98104.53;;;7.55;100.00
5872;BME280;2962;51.312;7.378;2023-02-19T11:38:15;98109.34;;;7.70;100.00
5872;BME280;2962;51.312;7.378;2023-02-19T11:43:33;98120.06;;;7.67;100.00
5872;BME280;2962;51.312;7.378;2023-02-19T11:51:51;98095.47;;;7.30;100.00
5872;BME280;2962;51.312;7.378;2023-02-19T11:57:08;98092.31;;;7.28;100.00
5872;BME280;2962;51.312;7.378;2023-02-19T11:59:57;98089.31;;;7.42;100.00
5872;BME280;2962;51.312;7.378;2023-02-19T12:02:49;98091.38;;;7.45;100.00
5872;BME280;2962;51.312;7.378;2023-02-19T12:05:28;98077.56;;;7.38;100.00
5872;BME280;2962;51.312;7.378;2023-02-19T12:16:42;98088.41;;;7.38;100.00
5872;BME280;2962;51.312;7.378;2023-02-19T12:27:47;98097.03;;;7.19;100.00
5872;BME280;2962;51.312;7.378;2023-02-19T12:43:20;98111.22;;;7.37;100.00
5872;BME280;2962;51.312;7.378;2023-02-19T12:45:51;98106.66;;;7.28;100.00
5872;BME280;2962;51.312;7.378;2023-02-19T12:48:52;98109.00;;;7.39;100.00
5872;BME280;2962;51.312;7.378;2023-02-19T12:51:26;98113.28;;;7.40;100.00
5872;BME280;2962;51.312;7.378;2023-02-19T12:56:46;98119.50;;;7.19;100.00
5872;BME280;2962;51.312;7.378;2023-02-19T12:59:32;98121.59;;;7.14;100.00
5872;BME280;2962;51.312;7.378;2023-02-19T13:05:01;98130.97;;;6.87;100.00
5872;BME280;2962;51.312;7.378;2023-02-19T13:10:32;98134.34;;;6.83;100.00
5872;BME280;2962;51.312;7.378;2023-02-19T13:13:05;98145.88;;;7.01;100.00
5872;BME280;2962;51.312;7.378;2023-02-19T13:15:42;98138.63;;;7.14;100.00
5872;BME280;2962;51.312;7.378;2023-02-19T13:18:18;98110.06;;;6.96;100.00
5872;BME280;2962;51.312;7.378;2023-02-19T13:20:46;98138.41;;;6.98;100.00
5872;BME280;2962;51.312;7.378;2023-02-19T13:31:46;98132.88;;;6.56;100.00
5872;BME280;2962;51.312;7.378;2023-02-19T13:37:19;98147.88;;;6.54;100.00
5872;BME280;2962;51.312;7.378;2023-02-19T13:39:55;98143.53;;;6.62;100.00
5872;BME280;2962;51.312;7.378;2023-02-19T13:42:34;98150.03;;;6.69;100.00
5872;BME280;2962;51.312;7.378;2023-02-19T13:45:05;98154.09;;;6.84;100.00
5872;BME280;2962;51.312;7.378;2023-02-19T13:50:27;98146.63;;;6.81;100.00
5872;BME280;2962;51.312;7.378;2023-02-19T13:52:57;98156.63;;;6.89;100.00
5872;BME280;2962;51.312;7.378;2023-02-19T14:00:56;98160.88;;;6.99;100.00
5872;BME280;2962;51.312;7.378;2023-02-19T14:06:09;98177.28;;;7.02;100.00
5872;BME280;2962;51.312;7.378;2023-02-19T14:08:55;98187.59;;;7.09;100.00
5872;BME280;2962;51.312;7.378;2023-02-19T14:25:20;98191.69;;;6.85;100.00
5872;BME280;2962;51.312;7.378;2023-02-19T14:27:48;98191.75;;;6.77;100.00
5872;BME280;2962;51.312;7.378;2023-02-19T14:30:14;98206.72;;;6.74;100.00
5872;BME280;2962;51.312;7.378;2023-02-19T14:32:40;98208.00;;;6.77;100.00
5872;BME280;2962;51.312;7.378;2023-02-19T14:35:17;98209.75;;;6.73;100.00
5872;BME280;2962;51.312;7.378;2023-02-19T14:37:44;98207.19;;;6.76;100.00
5872;BME280;2962;51.312;7.378;2023-02-19T14:40:17;98199.72;;;6.65;100.00
5872;BME280;2962;51.312;7.378;2023-02-19T14:42:43;98219.13;;;6.75;100.00
5872;BME280;2962;51.312;7.378;2023-02-19T14:45:09;98212.13;;;6.74;100.00
5872;BME280;2962;51.312;7.378;2023-02-19T14:47:35;98201.50;;;6.69;100.00
5872;BME280;2962;51.312;7.378;2023-02-19T14:50:05;98208.69;;;6.65;100.00
5872;BME280;2962;51.312;7.378;2023-02-19T14:52:35;98194.84;;;6.58;100.00
5872;BME280;2962;51.312;7.378;2023-02-19T14:55:07;98215.31;;;6.76;100.00
5872;BME280;2962;51.312;7.378;2023-02-19T14:57:42;98214.72;;;6.62;100.00
5872;BME280;2962;51.312;7.378;2023-02-19T15:02:48;98208.31;;;6.75;100.00
5872;BME280;2962;51.312;7.378;2023-02-19T15:05:15;98217.25;;;6.67;100.00
5872;BME280;2962;51.312;7.378;2023-02-19T15:07:41;98206.91;;;6.60;100.00
5872;BME280;2962;51.312;7.378;2023-02-19T15:10:08;98204.22;;;6.52;100.00
5872;BME280;2962;51.312;7.378;2023-02-19T15:12:43;98201.34;;;6.57;100.00
5872;BME280;2962;51.312;7.378;2023-02-19T15:15:17;98186.06;;;6.52;100.00
5872;BME280;2962;51.312;7.378;2023-02-19T15:17:44;98191.97;;;6.54;100.00
5872;BME280;2962;51.312;7.378;2023-02-19T15:20:15;98191.81;;;6.51;100.00
5872;BME280;2962;51.312;7.378;2023-02-19T15:22:43;98193.75;;;6.50;100.00
5872;BME280;2962;51.312;7.378;2023-02-19T15:25:15;98180.84;;;6.47;100.00
5872;BME280;2962;51.312;7.378;2023-02-19T15:27:41;98188.00;;;6.52;100.00
5872;BME280;2962;51.312;7.378;2023-02-19T15:30:25;98180.50;;;6.49;100.00